sensor_id;sensor_type;location;lat;lon;timestamp;P1;durP1;ratioP1;P2;durP2;ratioP2
70946;SDS011;58605;48.700;8.760;2022-12-18T00:01:23;57.03;;;30.43;;
70946;SDS011;58605;48.700;8.760;2022-12-18T00:03:50;52.10;;;28.50;;
70946;SDS011;58605;48.700;8.760;2022-12-18T00:06:17;57.07;;;28.40;;
70946;SDS011;58605;48.700;8.760;2022-12-18T00:08:44;50.07;;;27.10;;
70946;SDS011;58605;48.700;8.760;2022-12-18T00:11:12;58.20;;;29.27;;
70946;SDS011;58605;48.700;8.760;2022-12-18T00:13:39;54.40;;;28.20;;
70946;SDS011;58605;48.700;8.760;2022-12-18T00:16:06;58.57;;;28.30;;
70946;SDS011;58605;48.700;8.760;2022-12-18T00:18:34;54.23;;;29.27;;
70946;SDS011;58605;48.700;8.760;2022-12-18T00:21:00;49.37;;;26.67;;
70946;SDS011;58605;48.700;8.760;2022-12-18T00:23:28;54.33;;;27.23;;
70946;SDS011;58605;48.700;8.760;2022-12-18T00:25:58;45.03;;;25.63;;
70946;SDS011;58605;48.700;8.760;2022-12-18T00:28:24;51.17;;;26.67;;
70946;SDS011;58605;48.700;8.760;2022-12-18T00:30:50;48.27;;;27.73;;
70946;SDS011;58605;48.700;8.760;2022-12-18T00:33:24;60.93;;;31.17;;
70946;SDS011;58605;48.700;8.760;2022-12-18T00:35:50;49.40;;;27.67;;
70946;SDS011;58605;48.700;8.760;2022-12-18T00:38:15;50.50;;;26.90;;
70946;SDS011;58605;48.700;8.760;2022-12-18T00:40:41;50.07;;;24.60;;
70946;SDS011;58605;48.700;8.760;2022-12-18T00:43:09;39.27;;;21.90;;
70946;SDS011;58605;48.700;8.760;2022-12-18T00:45:35;40.17;;;24.83;;
70946;SDS011;58605;48.700;8.760;2022-12-18T00:48:01;47.63;;;25.37;;
70946;SDS011;58605;48.700;8.760;2022-12-18T00:50:27;51.57;;;27.87;;
70946;SDS011;58605;48.700;8.760;2022-12-18T00:52:53;45.40;;;25.70;;
70946;SDS011;58605;48.700;8.760;2022-12-18T00:55:19;44.87;;;24.73;;
70946;SDS011;58605;48.700;8.760;2022-12-18T00:57:44;42.33;;;22.00;;
70946;SDS011;58605;48.700;8.760;2022-12-18T01:00:13;46.90;;;22.57;;
70946;SDS011;58605;48.700;8.760;2022-12-18T01:02:40;48.33;;;24.77;;
70946;SDS011;58605;48.700;8.760;2022-12-18T01:05:07;44.43;;;23.53;;
70946;SDS011;58605;48.700;8.760;2022-12-18T01:07:33;43.93;;;23.77;;
70946;SDS011;58605;48.700;8.760;2022-12-18T01:09:59;39.50;;;21.07;;
70946;SDS011;58605;48.700;8.760;2022-12-18T01:12:25;43.77;;;21.87;;
70946;SDS011;58605;48.700;8.760;2022-12-18T01:14:51;35.93;;;22.90;;
70946;SDS011;58605;48.700;8.760;2022-12-18T01:17:18;52.67;;;24.20;;
70946;SDS011;58605;48.700;8.760;2022-12-18T01:19:44;44.17;;;24.83;;
70946;SDS011;58605;48.700;8.760;2022-12-18T01:22:10;47.27;;;25.67;;
70946;SDS011;58605;48.700;8.760;2022-12-18T01:24:36;46.93;;;24.40;;
70946;SDS011;58605;48.700;8.760;2022-12-18T01:27:02;51.90;;;26.17;;
70946;SDS011;58605;48.700;8.760;2022-12-18T01:29:28;45.60;;;24.17;;
70946;SDS011;58605;48.700;8.760;2022-12-18T01:31:54;45.63;;;25.50;;
70946;SDS011;58605;48.700;8.760;2022-12-18T01:34:21;44.70;;;25.07;;
70946;SDS011;58605;48.700;8.760;2022-12-18T01:36:47;45.33;;;25.77;;
70946;SDS011;58605;48.700;8.760;2022-12-18T01:39:14;51.53;;;27.47;;
70946;SDS011;58605;48.700;8.760;2022-12-18T01:41:40;42.33;;;24.97;;
70946;SDS011;58605;48.700;8.760;2022-12-18T01:47:27;46.07;;;26.77;;
70946;SDS011;58605;48.700;8.760;2022-12-18T01:49:58;50.87;;;27.10;;
70946;SDS011;58605;48.700;8.760;2022-12-18T01:52:28;45.57;;;22.67;;
70946;SDS011;58605;48.700;8.760;2022-12-18T01:54:56;42.60;;;23.37;;
70946;SDS011;58605;48.700;8.760;2022-12-18T01:57:24;39.20;;;22.57;;
70946;SDS011;58605;48.700;8.760;2022-12-18T01:59:52;44.43;;;23.70;;
70946;SDS011;58605;48.700;8.760;2022-12-18T02:02:34;51.60;;;24.50;;
70946;SDS011;58605;48.700;8.760;2022-12-18T02:05:03;49.93;;;27.00;;
70946;SDS011;58605;48.700;8.760;2022-12-18T02:07:32;43.37;;;23.40;;
70946;SDS011;58605;48.700;8.760;2022-12-18T02:10:10;43.20;;;21.47;;
70946;SDS011;58605;48.700;8.760;2022-12-18T02:12:42;39.63;;;23.90;;
70946;SDS011;58605;48.700;8.760;2022-12-18T02:15:15;46.53;;;23.80;;
70946;SDS011;58605;48.700;8.760;2022-12-18T02:17:52;45.70;;;24.13;;
70946;SDS011;58605;48.700;8.760;2022-12-18T02:20:24;52.63;;;23.97;;
70946;SDS011;58605;48.700;8.760;2022-12-18T02:22:59;42.43;;;23.57;;
70946;SDS011;58605;48.700;8.760;2022-12-18T02:25:36;37.87;;;22.40;;
70946;SDS011;58605;48.700;8.760;2022-12-18T02:28:13;43.27;;;22.70;;
70946;SDS011;58605;48.700;8.760;2022-12-18T02:30:41;44.03;;;23.40;;
70946;SDS011;58605;48.700;8.760;2022-12-18T02:33:09;41.73;;;23.03;;
70946;SDS011;58605;48.700;8.760;2022-12-18T02:35:37;49.03;;;25.13;;
70946;SDS011;58605;48.700;8.760;2022-12-18T02:38:06;41.60;;;23.53;;
70946;SDS011;58605;48.700;8.760;2022-12-18T02:40:32;38.57;;;23.03;;
70946;SDS011;58605;48.700;8.760;2022-12-18T02:43:02;42.50;;;21.97;;
70946;SDS011;58605;48.700;8.760;2022-12-18T02:45:33;43.80;;;23.30;;
70946;SDS011;58605;48.700;8.760;2022-12-18T02:47:59;47.87;;;23.83;;
70946;SDS011;58605;48.700;8.760;2022-12-18T02:50:26;39.50;;;21.70;;
70946;SDS011;58605;48.700;8.760;2022-12-18T02:53:00;45.23;;;24.63;;
70946;SDS011;58605;48.700;8.760;2022-12-18T02:55:37;47.90;;;24.27;;
70946;SDS011;58605;48.700;8.760;2022-12-18T02:58:13;51.53;;;26.57;;
70946;SDS011;58605;48.700;8.760;2022-12-18T03:00:46;38.67;;;21.33;;
70946;SDS011;58605;48.700;8.760;2022-12-18T03:03:18;36.17;;;20.60;;
70946;SDS011;58605;48.700;8.760;2022-12-18T03:05:52;36.30;;;22.10;;
70946;SDS011;58605;48.700;8.760;2022-12-18T03:08:22;42.17;;;23.20;;
70946;SDS011;58605;48.700;8.760;2022-12-18T03:10:53;39.80;;;22.07;;
70946;SDS011;58605;48.700;8.760;2022-12-18T03:13:25;40.73;;;21.13;;
70946;SDS011;58605;48.700;8.760;2022-12-18T03:15:56;36.27;;;21.63;;
70946;SDS011;58605;48.700;8.760;2022-12-18T03:18:25;42.37;;;21.10;;
70946;SDS011;58605;48.700;8.760;2022-12-18T03:20:55;35.17;;;20.40;;
70946;SDS011;58605;48.700;8.760;2022-12-18T03:23:25;44.30;;;21.50;;
70946;SDS011;58605;48.700;8.760;2022-12-18T03:25:56;33.47;;;21.90;;
70946;SDS011;58605;48.700;8.760;2022-12-18T03:28:24;40.00;;;22.27;;
70946;SDS011;58605;48.700;8.760;2022-12-18T03:30:57;35.70;;;21.10;;
70946;SDS011;58605;48.700;8.760;2022-12-18T03:33:25;40.47;;;23.27;;
70946;SDS011;58605;48.700;8.760;2022-12-18T03:35:55;43.87;;;22.73;;
70946;SDS011;58605;48.700;8.760;2022-12-18T03:38:21;38.73;;;22.20;;
70946;SDS011;58605;48.700;8.760;2022-12-18T03:40:50;32.20;;;21.33;;
70946;SDS011;58605;48.700;8.760;2022-12-18T03:43:26;39.87;;;22.27;;
70946;SDS011;58605;48.700;8.760;2022-12-18T03:46:02;42.97;;;22.77;;
70946;SDS011;58605;48.700;8.760;2022-12-18T03:48:32;38.43;;;20.43;;
70946;SDS011;58605;48.700;8.760;2022-12-18T03:51:05;33.93;;;21.70;;
70946;SDS011;58605;48.700;8.760;2022-12-18T03:53:36;40.33;;;21.93;;
70946;SDS011;58605;48.700;8.760;2022-12-18T03:56:08;36.30;;;19.03;;
70946;SDS011;58605;48.700;8.760;2022-12-18T03:58:37;40.23;;;23.33;;
70946;SDS011;58605;48.700;8.760;2022-12-18T04:01:06;39.77;;;20.47;;
70946;SDS011;58605;48.700;8.760;2022-12-18T04:03:35;41.83;;;24.43;;
70946;SDS011;58605;48.700;8.760;2022-12-18T04:06:02;38.43;;;22.13;;
70946;SDS011;58605;48.700;8.760;2022-12-18T04:08:30;31.97;;;20.17;;
70946;SDS011;58605;48.700;8.760;2022-12-18T04:10:57;40.43;;;23.40;;
70946;SDS011;58605;48.700;8.760;2022-12-18T04:13:23;41.50;;;21.67;;
70946;SDS011;58605;48.700;8.760;2022-12-18T04:15:49;44.67;;;22.40;;
70946;SDS011;58605;48.700;8.760;2022-12-18T04:18:18;44.33;;;23.97;;
70946;SDS011;58605;48.700;8.760;2022-12-18T04:20:44;40.33;;;22.47;;
70946;SDS011;58605;48.700;8.760;2022-12-18T04:23:11;35.10;;;20.50;;
70946;SDS011;58605;48.700;8.760;2022-12-18T04:25:37;40.97;;;22.30;;
70946;SDS011;58605;48.700;8.760;2022-12-18T04:28:03;37.77;;;21.70;;
70946;SDS011;58605;48.700;8.760;2022-12-18T04:30:29;42.30;;;21.87;;
70946;SDS011;58605;48.700;8.760;2022-12-18T04:32:55;38.30;;;20.23;;
70946;SDS011;58605;48.700;8.760;2022-12-18T04:35:23;43.97;;;21.60;;
70946;SDS011;58605;48.700;8.760;2022-12-18T04:37:49;34.57;;;19.77;;
70946;SDS011;58605;48.700;8.760;2022-12-18T04:40:15;39.70;;;21.03;;
70946;SDS011;58605;48.700;8.760;2022-12-18T04:42:41;38.20;;;22.03;;
70946;SDS011;58605;48.700;8.760;2022-12-18T04:45:07;42.97;;;22.77;;
70946;SDS011;58605;48.700;8.760;2022-12-18T04:47:34;40.93;;;21.67;;
70946;SDS011;58605;48.700;8.760;2022-12-18T04:50:00;38.07;;;21.37;;
70946;SDS011;58605;48.700;8.760;2022-12-18T04:52:27;36.83;;;19.93;;
70946;SDS011;58605;48.700;8.760;2022-12-18T04:54:54;44.93;;;21.73;;
70946;SDS011;58605;48.700;8.760;2022-12-18T04:57:20;38.97;;;20.93;;
70946;SDS011;58605;48.700;8.760;2022-12-18T04:59:46;43.17;;;22.00;;
70946;SDS011;58605;48.700;8.760;2022-12-18T05:02:12;44.67;;;23.37;;
70946;SDS011;58605;48.700;8.760;2022-12-18T05:04:38;49.60;;;24.60;;
70946;SDS011;58605;48.700;8.760;2022-12-18T05:07:04;48.50;;;24.23;;
70946;SDS011;58605;48.700;8.760;2022-12-18T05:09:32;49.50;;;24.13;;
70946;SDS011;58605;48.700;8.760;2022-12-18T05:11:58;47.90;;;24.43;;
70946;SDS011;58605;48.700;8.760;2022-12-18T05:14:24;40.90;;;23.27;;
70946;SDS011;58605;48.700;8.760;2022-12-18T05:16:52;51.87;;;24.93;;
70946;SDS011;58605;48.700;8.760;2022-12-18T05:19:18;42.03;;;23.83;;
70946;SDS011;58605;48.700;8.760;2022-12-18T05:21:44;47.33;;;22.67;;
70946;SDS011;58605;48.700;8.760;2022-12-18T05:24:10;49.17;;;24.10;;
70946;SDS011;58605;48.700;8.760;2022-12-18T05:26:38;48.77;;;24.30;;
70946;SDS011;58605;48.700;8.760;2022-12-18T05:29:04;51.37;;;22.83;;
70946;SDS011;58605;48.700;8.760;2022-12-18T05:31:30;49.07;;;25.20;;
70946;SDS011;58605;48.700;8.760;2022-12-18T05:33:57;49.50;;;24.10;;
70946;SDS011;58605;48.700;8.760;2022-12-18T05:36:23;58.67;;;25.80;;
70946;SDS011;58605;48.700;8.760;2022-12-18T05:38:49;49.97;;;25.50;;
70946;SDS011;58605;48.700;8.760;2022-12-18T05:41:15;50.50;;;25.30;;
70946;SDS011;58605;48.700;8.760;2022-12-18T05:43:43;51.67;;;23.90;;
70946;SDS011;58605;48.700;8.760;2022-12-18T05:46:11;50.10;;;25.10;;
70946;SDS011;58605;48.700;8.760;2022-12-18T05:48:38;51.17;;;26.57;;
70946;SDS011;58605;48.700;8.760;2022-12-18T05:51:05;48.60;;;24.67;;
70946;SDS011;58605;48.700;8.760;2022-12-18T05:53:33;53.37;;;26.27;;
70946;SDS011;58605;48.700;8.760;2022-12-18T05:56:00;44.80;;;22.97;;
70946;SDS011;58605;48.700;8.760;2022-12-18T05:58:27;42.77;;;22.50;;
70946;SDS011;58605;48.700;8.760;2022-12-18T06:00:55;42.60;;;23.37;;
70946;SDS011;58605;48.700;8.760;2022-12-18T06:03:22;43.90;;;23.10;;
70946;SDS011;58605;48.700;8.760;2022-12-18T06:05:48;53.20;;;26.23;;
70946;SDS011;58605;48.700;8.760;2022-12-18T06:08:14;54.53;;;25.37;;
70946;SDS011;58605;48.700;8.760;2022-12-18T06:10:40;53.33;;;25.53;;
70946;SDS011;58605;48.700;8.760;2022-12-18T06:13:07;41.83;;;24.17;;
70946;SDS011;58605;48.700;8.760;2022-12-18T06:15:35;49.50;;;25.33;;
70946;SDS011;58605;48.700;8.760;2022-12-18T06:18:03;55.33;;;25.03;;
70946;SDS011;58605;48.700;8.760;2022-12-18T06:20:29;45.70;;;24.67;;
70946;SDS011;58605;48.700;8.760;2022-12-18T06:22:55;59.63;;;26.43;;
70946;SDS011;58605;48.700;8.760;2022-12-18T06:25:21;55.33;;;24.67;;
70946;SDS011;58605;48.700;8.760;2022-12-18T06:27:47;61.97;;;28.83;;
70946;SDS011;58605;48.700;8.760;2022-12-18T06:30:13;50.70;;;27.07;;
70946;SDS011;58605;48.700;8.760;2022-12-18T06:32:40;55.03;;;25.00;;
70946;SDS011;58605;48.700;8.760;2022-12-18T06:35:08;51.57;;;25.47;;
70946;SDS011;58605;48.700;8.760;2022-12-18T06:37:34;56.07;;;27.10;;
70946;SDS011;58605;48.700;8.760;2022-12-18T06:40:00;46.87;;;24.17;;
70946;SDS011;58605;48.700;8.760;2022-12-18T06:42:26;51.87;;;22.70;;
70946;SDS011;58605;48.700;8.760;2022-12-18T06:44:54;50.17;;;25.87;;
70946;SDS011;58605;48.700;8.760;2022-12-18T06:47:20;55.23;;;25.50;;
70946;SDS011;58605;48.700;8.760;2022-12-18T06:49:46;52.47;;;26.00;;
70946;SDS011;58605;48.700;8.760;2022-12-18T06:52:14;52.93;;;27.00;;
70946;SDS011;58605;48.700;8.760;2022-12-18T06:54:40;48.70;;;24.50;;
70946;SDS011;58605;48.700;8.760;2022-12-18T06:57:06;46.83;;;24.17;;
70946;SDS011;58605;48.700;8.760;2022-12-18T06:59:39;50.63;;;24.97;;
70946;SDS011;58605;48.700;8.760;2022-12-18T07:02:05;45.13;;;22.20;;
70946;SDS011;58605;48.700;8.760;2022-12-18T07:04:31;44.67;;;22.07;;
70946;SDS011;58605;48.700;8.760;2022-12-18T07:06:57;48.20;;;22.87;;
70946;SDS011;58605;48.700;8.760;2022-12-18T07:09:25;35.23;;;17.20;;
70946;SDS011;58605;48.700;8.760;2022-12-18T07:11:51;41.53;;;18.97;;
70946;SDS011;58605;48.700;8.760;2022-12-18T07:14:17;39.40;;;18.23;;
70946;SDS011;58605;48.700;8.760;2022-12-18T07:16:43;43.60;;;22.40;;
70946;SDS011;58605;48.700;8.760;2022-12-18T07:19:09;39.90;;;20.37;;
70946;SDS011;58605;48.700;8.760;2022-12-18T07:21:35;35.87;;;20.00;;
70946;SDS011;58605;48.700;8.760;2022-12-18T07:24:01;35.67;;;19.60;;
70946;SDS011;58605;48.700;8.760;2022-12-18T07:26:29;40.63;;;19.73;;
70946;SDS011;58605;48.700;8.760;2022-12-18T07:28:56;37.67;;;18.87;;
70946;SDS011;58605;48.700;8.760;2022-12-18T07:31:29;43.47;;;20.50;;
70946;SDS011;58605;48.700;8.760;2022-12-18T07:33:55;45.27;;;21.13;;
70946;SDS011;58605;48.700;8.760;2022-12-18T07:36:21;35.97;;;17.43;;
70946;SDS011;58605;48.700;8.760;2022-12-18T07:38:47;37.57;;;18.30;;
70946;SDS011;58605;48.700;8.760;2022-12-18T07:41:14;39.27;;;20.77;;
70946;SDS011;58605;48.700;8.760;2022-12-18T07:43:41;36.67;;;20.87;;
70946;SDS011;58605;48.700;8.760;2022-12-18T07:46:08;39.77;;;19.50;;
70946;SDS011;58605;48.700;8.760;2022-12-18T07:48:35;29.90;;;16.77;;
70946;SDS011;58605;48.700;8.760;2022-12-18T07:51:02;36.70;;;18.90;;
70946;SDS011;58605;48.700;8.760;2022-12-18T07:53:30;41.47;;;21.47;;
70946;SDS011;58605;48.700;8.760;2022-12-18T07:55:57;33.13;;;16.17;;
70946;SDS011;58605;48.700;8.760;2022-12-18T07:58:23;39.27;;;19.80;;
70946;SDS011;58605;48.700;8.760;2022-12-18T08:00:51;33.00;;;16.00;;
70946;SDS011;58605;48.700;8.760;2022-12-18T08:03:17;36.20;;;18.23;;
70946;SDS011;58605;48.700;8.760;2022-12-18T08:05:43;33.93;;;14.53;;
70946;SDS011;58605;48.700;8.760;2022-12-18T08:08:10;42.97;;;19.13;;
70946;SDS011;58605;48.700;8.760;2022-12-18T08:10:36;33.47;;;18.03;;
70946;SDS011;58605;48.700;8.760;2022-12-18T08:13:04;35.33;;;19.07;;
70946;SDS011;58605;48.700;8.760;2022-12-18T08:15:30;35.07;;;19.27;;
70946;SDS011;58605;48.700;8.760;2022-12-18T08:17:57;39.67;;;20.73;;
70946;SDS011;58605;48.700;8.760;2022-12-18T08:20:23;39.27;;;19.70;;
70946;SDS011;58605;48.700;8.760;2022-12-18T08:22:49;32.73;;;18.13;;
70946;SDS011;58605;48.700;8.760;2022-12-18T08:25:15;29.90;;;16.80;;
70946;SDS011;58605;48.700;8.760;2022-12-18T08:27:42;36.00;;;19.40;;
70946;SDS011;58605;48.700;8.760;2022-12-18T08:30:08;40.50;;;21.23;;
70946;SDS011;58605;48.700;8.760;2022-12-18T08:32:35;42.63;;;23.80;;
70946;SDS011;58605;48.700;8.760;2022-12-18T08:35:03;38.87;;;20.27;;
70946;SDS011;58605;48.700;8.760;2022-12-18T08:37:30;43.03;;;20.07;;
70946;SDS011;58605;48.700;8.760;2022-12-18T08:39:56;34.90;;;18.23;;
70946;SDS011;58605;48.700;8.760;2022-12-18T08:42:22;42.33;;;20.47;;
70946;SDS011;58605;48.700;8.760;2022-12-18T08:45:07;35.83;;;19.53;;
70946;SDS011;58605;48.700;8.760;2022-12-18T08:47:34;41.00;;;20.57;;
70946;SDS011;58605;48.700;8.760;2022-12-18T08:50:00;42.40;;;20.77;;
70946;SDS011;58605;48.700;8.760;2022-12-18T08:52:28;39.30;;;21.83;;
70946;SDS011;58605;48.700;8.760;2022-12-18T08:54:56;40.37;;;20.10;;
70946;SDS011;58605;48.700;8.760;2022-12-18T08:57:22;43.07;;;19.87;;
70946;SDS011;58605;48.700;8.760;2022-12-18T08:59:48;37.57;;;20.67;;
70946;SDS011;58605;48.700;8.760;2022-12-18T09:02:14;42.93;;;21.83;;
70946;SDS011;58605;48.700;8.760;2022-12-18T09:04:40;44.33;;;21.03;;
70946;SDS011;58605;48.700;8.760;2022-12-18T09:07:08;38.83;;;18.73;;
70946;SDS011;58605;48.700;8.760;2022-12-18T09:09:34;45.77;;;22.30;;
70946;SDS011;58605;48.700;8.760;2022-12-18T09:12:01;45.40;;;21.63;;
70946;SDS011;58605;48.700;8.760;2022-12-18T09:14:27;48.37;;;22.40;;
70946;SDS011;58605;48.700;8.760;2022-12-18T09:16:53;41.27;;;20.63;;
70946;SDS011;58605;48.700;8.760;2022-12-18T09:19:19;42.90;;;22.43;;
70946;SDS011;58605;48.700;8.760;2022-12-18T09:21:45;49.73;;;21.67;;
70946;SDS011;58605;48.700;8.760;2022-12-18T09:24:13;16.60;;;10.10;;
70946;SDS011;58605;48.700;8.760;2022-12-18T09:26:40;28.27;;;15.03;;
70946;SDS011;58605;48.700;8.760;2022-12-18T09:29:06;38.97;;;20.50;;
70946;SDS011;58605;48.700;8.760;2022-12-18T09:31:32;47.03;;;24.33;;
70946;SDS011;58605;48.700;8.760;2022-12-18T09:33:59;48.37;;;23.07;;
70946;SDS011;58605;48.700;8.760;2022-12-18T09:36:25;40.50;;;21.17;;
70946;SDS011;58605;48.700;8.760;2022-12-18T09:38:51;39.67;;;17.97;;
70946;SDS011;58605;48.700;8.760;2022-12-18T09:41:30;44.37;;;22.00;;
70946;SDS011;58605;48.700;8.760;2022-12-18T09:44:09;31.07;;;15.43;;
70946;SDS011;58605;48.700;8.760;2022-12-18T09:46:45;20.40;;;11.13;;
70946;SDS011;58605;48.700;8.760;2022-12-18T09:49:15;49.87;;;21.40;;
70946;SDS011;58605;48.700;8.760;2022-12-18T09:51:45;41.67;;;18.70;;
70946;SDS011;58605;48.700;8.760;2022-12-18T09:54:16;41.13;;;19.17;;
70946;SDS011;58605;48.700;8.760;2022-12-18T09:56:47;47.30;;;21.33;;
70946;SDS011;58605;48.700;8.760;2022-12-18T09:59:17;32.77;;;14.77;;
70946;SDS011;58605;48.700;8.760;2022-12-18T10:01:47;22.17;;;11.83;;
70946;SDS011;58605;48.700;8.760;2022-12-18T10:04:14;41.20;;;19.93;;
70946;SDS011;58605;48.700;8.760;2022-12-18T10:06:42;48.83;;;22.33;;
70946;SDS011;58605;48.700;8.760;2022-12-18T10:09:17;43.87;;;20.40;;
70946;SDS011;58605;48.700;8.760;2022-12-18T10:11:52;41.50;;;19.83;;
70946;SDS011;58605;48.700;8.760;2022-12-18T10:14:26;39.80;;;19.03;;
70946;SDS011;58605;48.700;8.760;2022-12-18T10:16:59;51.10;;;23.17;;
70946;SDS011;58605;48.700;8.760;2022-12-18T10:19:34;47.23;;;20.10;;
70946;SDS011;58605;48.700;8.760;2022-12-18T10:22:10;43.27;;;20.40;;
70946;SDS011;58605;48.700;8.760;2022-12-18T10:24:45;27.83;;;14.27;;
70946;SDS011;58605;48.700;8.760;2022-12-18T10:27:21;27.27;;;12.33;;
70946;SDS011;58605;48.700;8.760;2022-12-18T10:29:50;21.03;;;13.43;;
70946;SDS011;58605;48.700;8.760;2022-12-18T10:32:17;38.50;;;16.23;;
70946;SDS011;58605;48.700;8.760;2022-12-18T10:34:45;43.43;;;21.67;;
70946;SDS011;58605;48.700;8.760;2022-12-18T10:37:14;49.33;;;21.87;;
70946;SDS011;58605;48.700;8.760;2022-12-18T10:39:42;43.20;;;21.17;;
70946;SDS011;58605;48.700;8.760;2022-12-18T10:42:09;51.17;;;23.03;;
70946;SDS011;58605;48.700;8.760;2022-12-18T10:44:41;47.63;;;22.33;;
70946;SDS011;58605;48.700;8.760;2022-12-18T10:47:11;37.83;;;16.40;;
70946;SDS011;58605;48.700;8.760;2022-12-18T10:49:41;57.60;;;26.50;;
70946;SDS011;58605;48.700;8.760;2022-12-18T10:52:14;48.67;;;23.17;;
70946;SDS011;58605;48.700;8.760;2022-12-18T10:54:45;33.20;;;17.07;;
70946;SDS011;58605;48.700;8.760;2022-12-18T10:57:14;43.77;;;20.67;;
70946;SDS011;58605;48.700;8.760;2022-12-18T10:59:49;55.57;;;24.53;;
70946;SDS011;58605;48.700;8.760;2022-12-18T11:02:24;47.77;;;22.57;;
70946;SDS011;58605;48.700;8.760;2022-12-18T11:04:53;39.27;;;17.80;;
70946;SDS011;58605;48.700;8.760;2022-12-18T11:07:19;47.77;;;21.27;;
70946;SDS011;58605;48.700;8.760;2022-12-18T11:09:45;51.43;;;23.13;;
70946;SDS011;58605;48.700;8.760;2022-12-18T11:12:25;29.20;;;17.03;;
70946;SDS011;58605;48.700;8.760;2022-12-18T11:14:55;28.83;;;14.47;;
70946;SDS011;58605;48.700;8.760;2022-12-18T11:17:25;40.40;;;20.00;;
70946;SDS011;58605;48.700;8.760;2022-12-18T11:19:55;43.30;;;18.37;;
70946;SDS011;58605;48.700;8.760;2022-12-18T11:22:23;50.73;;;24.07;;
70946;SDS011;58605;48.700;8.760;2022-12-18T11:24:53;46.30;;;22.43;;
70946;SDS011;58605;48.700;8.760;2022-12-18T11:27:22;53.40;;;22.83;;
70946;SDS011;58605;48.700;8.760;2022-12-18T11:29:49;48.23;;;21.40;;
70946;SDS011;58605;48.700;8.760;2022-12-18T11:32:22;60.47;;;25.63;;
70946;SDS011;58605;48.700;8.760;2022-12-18T11:34:59;49.63;;;23.83;;
70946;SDS011;58605;48.700;8.760;2022-12-18T11:37:29;49.87;;;24.70;;
70946;SDS011;58605;48.700;8.760;2022-12-18T11:39:57;45.67;;;22.43;;
70946;SDS011;58605;48.700;8.760;2022-12-18T11:42:30;46.17;;;22.07;;
70946;SDS011;58605;48.700;8.760;2022-12-18T11:45:08;48.33;;;22.30;;
70946;SDS011;58605;48.700;8.760;2022-12-18T11:47:54;56.57;;;25.40;;
70946;SDS011;58605;48.700;8.760;2022-12-18T11:50:24;41.83;;;20.47;;
70946;SDS011;58605;48.700;8.760;2022-12-18T11:52:56;48.97;;;23.10;;
70946;SDS011;58605;48.700;8.760;2022-12-18T11:55:24;52.03;;;23.77;;
70946;SDS011;58605;48.700;8.760;2022-12-18T11:57:58;50.03;;;24.37;;
70946;SDS011;58605;48.700;8.760;2022-12-18T12:00:32;45.93;;;23.83;;
70946;SDS011;58605;48.700;8.760;2022-12-18T12:03:12;49.67;;;23.70;;
70946;SDS011;58605;48.700;8.760;2022-12-18T12:05:50;50.60;;;21.47;;
70946;SDS011;58605;48.700;8.760;2022-12-18T12:08:28;56.90;;;24.00;;
70946;SDS011;58605;48.700;8.760;2022-12-18T12:11:03;47.43;;;21.70;;
70946;SDS011;58605;48.700;8.760;2022-12-18T12:13:39;51.77;;;25.37;;
70946;SDS011;58605;48.700;8.760;2022-12-18T12:16:21;48.33;;;23.60;;
70946;SDS011;58605;48.700;8.760;2022-12-18T12:18:55;55.37;;;25.37;;
70946;SDS011;58605;48.700;8.760;2022-12-18T12:21:33;52.20;;;24.73;;
70946;SDS011;58605;48.700;8.760;2022-12-18T12:24:08;50.27;;;24.43;;
70946;SDS011;58605;48.700;8.760;2022-12-18T12:26:47;52.27;;;24.73;;
70946;SDS011;58605;48.700;8.760;2022-12-18T12:29:23;54.40;;;27.07;;
70946;SDS011;58605;48.700;8.760;2022-12-18T12:32:00;52.00;;;24.93;;
70946;SDS011;58605;48.700;8.760;2022-12-18T12:34:39;52.13;;;25.10;;
70946;SDS011;58605;48.700;8.760;2022-12-18T12:37:19;53.80;;;24.33;;
70946;SDS011;58605;48.700;8.760;2022-12-18T12:39:50;54.97;;;25.97;;
70946;SDS011;58605;48.700;8.760;2022-12-18T12:42:20;50.53;;;25.07;;
70946;SDS011;58605;48.700;8.760;2022-12-18T12:45:15;56.33;;;24.50;;
70946;SDS011;58605;48.700;8.760;2022-12-18T12:47:45;54.47;;;24.60;;
70946;SDS011;58605;48.700;8.760;2022-12-18T12:50:14;50.17;;;24.77;;
70946;SDS011;58605;48.700;8.760;2022-12-18T12:52:45;51.47;;;25.97;;
70946;SDS011;58605;48.700;8.760;2022-12-18T12:55:16;58.27;;;27.50;;
70946;SDS011;58605;48.700;8.760;2022-12-18T12:57:46;48.80;;;24.10;;
70946;SDS011;58605;48.700;8.760;2022-12-18T13:00:19;55.07;;;24.83;;
70946;SDS011;58605;48.700;8.760;2022-12-18T13:02:47;60.10;;;25.80;;
70946;SDS011;58605;48.700;8.760;2022-12-18T13:05:21;49.97;;;23.57;;
70946;SDS011;58605;48.700;8.760;2022-12-18T13:07:51;51.77;;;25.23;;
70946;SDS011;58605;48.700;8.760;2022-12-18T13:10:25;47.00;;;24.00;;
70946;SDS011;58605;48.700;8.760;2022-12-18T13:12:57;56.07;;;25.27;;
70946;SDS011;58605;48.700;8.760;2022-12-18T13:15:25;56.30;;;26.77;;
70946;SDS011;58605;48.700;8.760;2022-12-18T13:20:49;50.27;;;24.00;;
70946;SDS011;58605;48.700;8.760;2022-12-18T13:28:56;49.87;;;23.53;;
70946;SDS011;58605;48.700;8.760;2022-12-18T13:34:32;56.67;;;25.80;;
70946;SDS011;58605;48.700;8.760;2022-12-18T13:39:59;53.87;;;25.50;;
70946;SDS011;58605;48.700;8.760;2022-12-18T13:42:34;53.40;;;25.33;;
70946;SDS011;58605;48.700;8.760;2022-12-18T13:45:37;50.27;;;23.70;;
70946;SDS011;58605;48.700;8.760;2022-12-18T13:48:15;49.67;;;25.97;;
70946;SDS011;58605;48.700;8.760;2022-12-18T13:50:52;54.17;;;23.77;;
70946;SDS011;58605;48.700;8.760;2022-12-18T13:53:21;59.00;;;27.87;;
70946;SDS011;58605;48.700;8.760;2022-12-18T13:55:51;59.63;;;26.37;;
70946;SDS011;58605;48.700;8.760;2022-12-18T13:58:17;51.60;;;25.37;;
70946;SDS011;58605;48.700;8.760;2022-12-18T14:00:43;51.27;;;25.53;;
70946;SDS011;58605;48.700;8.760;2022-12-18T14:03:15;51.57;;;25.20;;
70946;SDS011;58605;48.700;8.760;2022-12-18T14:05:46;49.10;;;24.07;;
70946;SDS011;58605;48.700;8.760;2022-12-18T14:08:19;57.80;;;25.50;;
70946;SDS011;58605;48.700;8.760;2022-12-18T14:10:46;55.73;;;26.47;;
70946;SDS011;58605;48.700;8.760;2022-12-18T14:13:17;51.57;;;27.10;;
70946;SDS011;58605;48.700;8.760;2022-12-18T14:15:48;51.37;;;24.20;;
70946;SDS011;58605;48.700;8.760;2022-12-18T14:18:18;57.40;;;27.17;;
70946;SDS011;58605;48.700;8.760;2022-12-18T14:20:47;52.67;;;26.80;;
70946;SDS011;58605;48.700;8.760;2022-12-18T14:23:27;50.57;;;25.27;;
70946;SDS011;58605;48.700;8.760;2022-12-18T14:25:55;56.70;;;25.53;;
70946;SDS011;58605;48.700;8.760;2022-12-18T14:28:23;54.60;;;28.03;;
70946;SDS011;58605;48.700;8.760;2022-12-18T14:30:49;55.67;;;27.17;;
70946;SDS011;58605;48.700;8.760;2022-12-18T14:33:17;55.40;;;27.93;;
70946;SDS011;58605;48.700;8.760;2022-12-18T14:35:52;53.93;;;25.47;;
70946;SDS011;58605;48.700;8.760;2022-12-18T14:38:21;54.37;;;27.17;;
70946;SDS011;58605;48.700;8.760;2022-12-18T14:40:51;52.20;;;26.60;;
70946;SDS011;58605;48.700;8.760;2022-12-18T14:43:19;53.80;;;26.77;;
70946;SDS011;58605;48.700;8.760;2022-12-18T14:45:47;58.07;;;25.37;;
70946;SDS011;58605;48.700;8.760;2022-12-18T14:48:15;53.97;;;26.57;;
70946;SDS011;58605;48.700;8.760;2022-12-18T14:50:43;58.70;;;28.10;;